Estación Meteorológica Peña el Pijo (Robertgarden) [ 01/30/23 13:47:11 CET ]

Fecha Hora Presion(HPa) Temp (°C) Humedad % Rocio (°C) Viento ( m/s) Direccion Lluvia 1Hora(mm) Lluvia 24H(mm) LLuvia Total(mm)
2010-Nov-26 01:01:13 1001.300 5.9 86 3.7         6.21
2010-Nov-26 02:03:20 1001.200 6.1 87 4.1         6.21
2010-Nov-26 03:01:14 1000.900 6.1 89 4.4         6.21
2010-Nov-26 04:01:11 1001.000 5.9 88 4.1         6.21
2010-Nov-26 05:01:17 1000.900 5.8 86 3.6         6.21
2010-Nov-26 06:01:11 1001.200 4.8 79 1.4         6.21
2010-Nov-26 07:01:14 1001.500 4.3 76 0.4         6.21
2010-Nov-26 08:01:15 1001.400 4.1 71 -0.7         6.21
2010-Nov-26 09:01:14 1001.800 4.1 67 -1.5         6.21
2010-Nov-26 10:01:14 1001.600 4.7 64 -1.6         6.21
2010-Nov-26 11:01:15 1001.400 5.3 62 -1.4         6.21
2010-Nov-26 12:01:12 1000.800 5.9 59 -1.5         6.21
2010-Nov-26 13:01:16 999.700 7.4 60 0.2         6.21
2010-Nov-26 14:01:12 998.700 7.2 62 0.4         6.21
2010-Nov-26 15:01:12 998.300 6.9 64 0.5         6.21
2010-Nov-26 16:01:13 997.700 6.4 66 0.5         6.21
2010-Nov-26 17:01:12 997.800 5.3 68 -0.1         6.21
2010-Nov-26 18:01:13 997.700 4.3 72 -0.3         6.21
2010-Nov-26 19:01:11 997.500 3.8 74 -0.4         6.21
2010-Nov-26 20:01:13 997.500 3.3 77 -0.3         6.21
2010-Nov-26 21:01:13 997.500 3.3 77 -0.3         6.21
2010-Nov-26 22:01:13 997.500 3.3 80 0.2         6.21
2010-Nov-26 23:01:13 997.200 2.9 83 0.3         6.21

Temperatura Máxima:    Temperatura Mínima:
Presión Máxima:1001.800 Hpa    Presión Mínima:997.200 Hpa


Volver